Airfield :
LOGIN :

Register | Disclaimer

   EN    FR    IT 

 










Legend :    VFR   Marginal VFR   IFR   Intensive IFR   Very Intensive IFR
Visi :
Ceiling :
>= 8 km
>= 3000ft
5 to 8 km
1000 to 3000 ft
1500m to 5 km
500 to 1000 ft
800 to 1500m
200 to 500 ft
< 800m
< 200 ft
Symbols :   Thunderstorms  Fog  Heavy snow  Heavy precipitations  Wind > 20 kt
SIGMETs :     Misc.  Thunderstorms  Icing  Turbulence  Mountain Waves  Volcanic Ashes






- Airport Elevation : 278 ft
- IATA code : RJK


LDRI - Rijeka

CURRENT METAR :
  • 080200Z 22005KT CAVOK 25/16 Q1017

EXPIRED METARs :
  • 080130Z 17003KT 090V260 CAVOK 24/16 Q1017
  • 080100Z 33005KT CAVOK 25/17 Q1017
  • 080030Z 33006KT CAVOK 25/17 Q1017
  • 080000Z 32003KT 210V030 CAVOK 27/16 Q1017
  • 072330Z VRB02KT CAVOK 26/17 Q1017

TAF TAF LDRI
Valid from the 08 at 00:00 until the 09 at 00:00 UTC


072325Z 0800/0900 06008KT CAVOK TX32/0812Z TN24/0804Z



MET'MAP, your aeronautical weather chart ! - Copyright ORBIFLY December 2007 - Disclaimer

ORBIFLY MET'MAP TEAM :

Programming & Development : Alexandra Zaïnal
Concept & original design : Baudouin d'Aumeries
Assistance for programming : Marc-Olivier Méhu
Technical & hardware support : Manuel Goepfert

Contact : metmap@orbifly.com




SOURCES & CREDITS :

   NOAA